sensor_id;sensor_type;location;lat;lon;timestamp;P1;durP1;ratioP1;P2;durP2;ratioP2
44987;SDS011;35735;52.226;21.254;2023-05-10T00:01:29;13.18;;;6.87;;
44987;SDS011;35735;52.226;21.254;2023-05-10T00:06:30;14.43;;;6.50;;
44987;SDS011;35735;52.226;21.254;2023-05-10T00:11:30;11.20;;;6.25;;
44987;SDS011;35735;52.226;21.254;2023-05-10T00:16:31;11.93;;;6.32;;
44987;SDS011;35735;52.226;21.254;2023-05-10T00:21:31;8.75;;;5.47;;
44987;SDS011;35735;52.226;21.254;2023-05-10T00:26:32;10.25;;;6.00;;
44987;SDS011;35735;52.226;21.254;2023-05-10T00:31:33;9.07;;;5.68;;
44987;SDS011;35735;52.226;21.254;2023-05-10T00:36:33;8.57;;;5.45;;
44987;SDS011;35735;52.226;21.254;2023-05-10T00:41:34;8.90;;;5.82;;
44987;SDS011;35735;52.226;21.254;2023-05-10T00:46:34;7.00;;;4.97;;
44987;SDS011;35735;52.226;21.254;2023-05-10T00:51:35;6.97;;;4.75;;
44987;SDS011;35735;52.226;21.254;2023-05-10T00:56:36;10.43;;;5.50;;
44987;SDS011;35735;52.226;21.254;2023-05-10T01:01:36;7.97;;;5.15;;
44987;SDS011;35735;52.226;21.254;2023-05-10T01:06:37;10.23;;;5.43;;
44987;SDS011;35735;52.226;21.254;2023-05-10T01:11:38;11.00;;;5.30;;
44987;SDS011;35735;52.226;21.254;2023-05-10T01:16:40;11.25;;;5.25;;
44987;SDS011;35735;52.226;21.254;2023-05-10T01:21:49;8.80;;;5.30;;
44987;SDS011;35735;52.226;21.254;2023-05-10T01:27:02;9.90;;;5.20;;
44987;SDS011;35735;52.226;21.254;2023-05-10T01:38:13;9.75;;;4.80;;
44987;SDS011;35735;52.226;21.254;2023-05-10T01:43:28;10.40;;;5.50;;
44987;SDS011;35735;52.226;21.254;2023-05-10T01:48:47;8.77;;;5.18;;
44987;SDS011;35735;52.226;21.254;2023-05-10T01:53:54;6.95;;;4.95;;
44987;SDS011;35735;52.226;21.254;2023-05-10T01:59:03;10.60;;;5.25;;
44987;SDS011;35735;52.226;21.254;2023-05-10T02:04:09;7.50;;;4.50;;
44987;SDS011;35735;52.226;21.254;2023-05-10T02:09:11;6.40;;;4.78;;
44987;SDS011;35735;52.226;21.254;2023-05-10T02:14:13;13.98;;;5.10;;
44987;SDS011;35735;52.226;21.254;2023-05-10T02:19:15;9.88;;;5.00;;
44987;SDS011;35735;52.226;21.254;2023-05-10T02:24:18;11.02;;;4.65;;
44987;SDS011;35735;52.226;21.254;2023-05-10T02:29:20;8.85;;;4.22;;
44987;SDS011;35735;52.226;21.254;2023-05-10T02:34:25;8.23;;;4.72;;
44987;SDS011;35735;52.226;21.254;2023-05-10T02:39:26;7.90;;;4.60;;
44987;SDS011;35735;52.226;21.254;2023-05-10T02:44:28;8.50;;;4.80;;
44987;SDS011;35735;52.226;21.254;2023-05-10T02:49:30;6.45;;;4.65;;
44987;SDS011;35735;52.226;21.254;2023-05-10T02:54:31;7.95;;;4.43;;
44987;SDS011;35735;52.226;21.254;2023-05-10T02:59:39;6.72;;;4.60;;
44987;SDS011;35735;52.226;21.254;2023-05-10T03:04:40;6.40;;;4.70;;
44987;SDS011;35735;52.226;21.254;2023-05-10T03:09:40;7.65;;;4.87;;
44987;SDS011;35735;52.226;21.254;2023-05-10T03:19:58;8.73;;;4.70;;
44987;SDS011;35735;52.226;21.254;2023-05-10T03:25:06;7.12;;;4.82;;
44987;SDS011;35735;52.226;21.254;2023-05-10T03:30:08;22.25;;;5.55;;
44987;SDS011;35735;52.226;21.254;2023-05-10T03:35:12;26.60;;;6.10;;
44987;SDS011;35735;52.226;21.254;2023-05-10T03:40:13;11.00;;;4.80;;
44987;SDS011;35735;52.226;21.254;2023-05-10T03:45:13;10.90;;;5.07;;
44987;SDS011;35735;52.226;21.254;2023-05-10T03:50:14;8.77;;;4.80;;
44987;SDS011;35735;52.226;21.254;2023-05-10T03:55:15;8.63;;;4.62;;
44987;SDS011;35735;52.226;21.254;2023-05-10T04:00:16;7.93;;;4.40;;
44987;SDS011;35735;52.226;21.254;2023-05-10T04:05:17;8.35;;;4.43;;
44987;SDS011;35735;52.226;21.254;2023-05-10T04:10:17;6.87;;;4.65;;
44987;SDS011;35735;52.226;21.254;2023-05-10T04:15:18;6.68;;;4.65;;
44987;SDS011;35735;52.226;21.254;2023-05-10T04:20:19;7.28;;;4.57;;
44987;SDS011;35735;52.226;21.254;2023-05-10T04:25:19;8.15;;;4.55;;
44987;SDS011;35735;52.226;21.254;2023-05-10T04:30:20;6.78;;;4.45;;
44987;SDS011;35735;52.226;21.254;2023-05-10T04:35:20;7.87;;;4.35;;
44987;SDS011;35735;52.226;21.254;2023-05-10T04:40:21;7.68;;;4.55;;
44987;SDS011;35735;52.226;21.254;2023-05-10T04:45:21;7.37;;;4.35;;
44987;SDS011;35735;52.226;21.254;2023-05-10T04:50:22;7.10;;;4.50;;
44987;SDS011;35735;52.226;21.254;2023-05-10T04:55:23;8.63;;;4.62;;
44987;SDS011;35735;52.226;21.254;2023-05-10T05:00:23;9.60;;;4.62;;
44987;SDS011;35735;52.226;21.254;2023-05-10T05:05:24;9.90;;;4.25;;
44987;SDS011;35735;52.226;21.254;2023-05-10T05:10:24;9.68;;;4.30;;
44987;SDS011;35735;52.226;21.254;2023-05-10T05:15:25;26.27;;;4.75;;
44987;SDS011;35735;52.226;21.254;2023-05-10T05:20:25;7.82;;;3.97;;
44987;SDS011;35735;52.226;21.254;2023-05-10T05:25:26;7.53;;;3.95;;
44987;SDS011;35735;52.226;21.254;2023-05-10T05:30:26;6.50;;;3.42;;
44987;SDS011;35735;52.226;21.254;2023-05-10T05:35:27;6.20;;;3.25;;
44987;SDS011;35735;52.226;21.254;2023-05-10T05:40:27;10.73;;;3.70;;
44987;SDS011;35735;52.226;21.254;2023-05-10T05:45:28;11.95;;;4.05;;
44987;SDS011;35735;52.226;21.254;2023-05-10T05:50:28;9.38;;;3.50;;
44987;SDS011;35735;52.226;21.254;2023-05-10T05:55:29;9.18;;;4.03;;
44987;SDS011;35735;52.226;21.254;2023-05-10T06:00:29;12.48;;;4.00;;
44987;SDS011;35735;52.226;21.254;2023-05-10T06:05:30;10.00;;;3.83;;
44987;SDS011;35735;52.226;21.254;2023-05-10T06:10:31;9.23;;;3.22;;
44987;SDS011;35735;52.226;21.254;2023-05-10T06:15:31;8.05;;;3.50;;
44987;SDS011;35735;52.226;21.254;2023-05-10T06:20:32;7.15;;;3.03;;
44987;SDS011;35735;52.226;21.254;2023-05-10T06:25:32;11.00;;;3.10;;
44987;SDS011;35735;52.226;21.254;2023-05-10T06:30:33;13.50;;;3.17;;
44987;SDS011;35735;52.226;21.254;2023-05-10T06:35:33;10.43;;;2.92;;
44987;SDS011;35735;52.226;21.254;2023-05-10T06:40:34;9.32;;;3.22;;
44987;SDS011;35735;52.226;21.254;2023-05-10T06:45:34;5.15;;;3.17;;
44987;SDS011;35735;52.226;21.254;2023-05-10T06:50:35;4.37;;;2.67;;
44987;SDS011;35735;52.226;21.254;2023-05-10T06:55:36;7.82;;;3.83;;
44987;SDS011;35735;52.226;21.254;2023-05-10T07:00:37;7.75;;;3.10;;
44987;SDS011;35735;52.226;21.254;2023-05-10T07:05:37;6.12;;;2.53;;
44987;SDS011;35735;52.226;21.254;2023-05-10T07:10:38;9.70;;;2.75;;
44987;SDS011;35735;52.226;21.254;2023-05-10T07:15:38;5.37;;;2.40;;
44987;SDS011;35735;52.226;21.254;2023-05-10T07:20:39;8.70;;;2.50;;
44987;SDS011;35735;52.226;21.254;2023-05-10T07:25:39;6.70;;;2.17;;
44987;SDS011;35735;52.226;21.254;2023-05-10T07:30:40;5.22;;;2.25;;
44987;SDS011;35735;52.226;21.254;2023-05-10T07:35:41;4.57;;;2.08;;
44987;SDS011;35735;52.226;21.254;2023-05-10T07:40:42;9.80;;;3.20;;
44987;SDS011;35735;52.226;21.254;2023-05-10T07:45:42;7.35;;;3.05;;
44987;SDS011;35735;52.226;21.254;2023-05-10T07:50:43;5.70;;;2.95;;
44987;SDS011;35735;52.226;21.254;2023-05-10T07:55:44;11.77;;;2.45;;
44987;SDS011;35735;52.226;21.254;2023-05-10T08:00:44;7.07;;;2.50;;
44987;SDS011;35735;52.226;21.254;2023-05-10T08:05:45;4.07;;;2.40;;
44987;SDS011;35735;52.226;21.254;2023-05-10T08:10:45;7.70;;;2.10;;
44987;SDS011;35735;52.226;21.254;2023-05-10T08:15:46;17.25;;;2.60;;
44987;SDS011;35735;52.226;21.254;2023-05-10T08:20:46;6.65;;;2.42;;
44987;SDS011;35735;52.226;21.254;2023-05-10T08:25:47;4.43;;;2.10;;
44987;SDS011;35735;52.226;21.254;2023-05-10T08:30:49;4.55;;;2.25;;
44987;SDS011;35735;52.226;21.254;2023-05-10T08:35:50;4.35;;;2.20;;
44987;SDS011;35735;52.226;21.254;2023-05-10T08:40:50;3.40;;;1.90;;
44987;SDS011;35735;52.226;21.254;2023-05-10T08:45:55;4.65;;;2.30;;
44987;SDS011;35735;52.226;21.254;2023-05-10T08:50:56;7.22;;;2.10;;
44987;SDS011;35735;52.226;21.254;2023-05-10T08:56:00;4.15;;;2.28;;
44987;SDS011;35735;52.226;21.254;2023-05-10T09:01:02;6.35;;;2.25;;
44987;SDS011;35735;52.226;21.254;2023-05-10T09:06:03;6.28;;;2.05;;
44987;SDS011;35735;52.226;21.254;2023-05-10T09:11:04;4.00;;;2.22;;
44987;SDS011;35735;52.226;21.254;2023-05-10T09:16:05;3.75;;;2.15;;
44987;SDS011;35735;52.226;21.254;2023-05-10T09:21:06;3.55;;;2.40;;
44987;SDS011;35735;52.226;21.254;2023-05-10T09:26:07;7.05;;;2.15;;
44987;SDS011;35735;52.226;21.254;2023-05-10T09:31:07;11.48;;;2.58;;
44987;SDS011;35735;52.226;21.254;2023-05-10T09:36:08;18.77;;;2.55;;
44987;SDS011;35735;52.226;21.254;2023-05-10T09:41:15;13.80;;;2.87;;
44987;SDS011;35735;52.226;21.254;2023-05-10T09:46:17;2.72;;;2.10;;
44987;SDS011;35735;52.226;21.254;2023-05-10T09:51:21;12.90;;;3.17;;
44987;SDS011;35735;52.226;21.254;2023-05-10T09:56:35;11.52;;;3.35;;
44987;SDS011;35735;52.226;21.254;2023-05-10T10:01:36;8.20;;;2.40;;
44987;SDS011;35735;52.226;21.254;2023-05-10T10:06:38;8.13;;;2.42;;
44987;SDS011;35735;52.226;21.254;2023-05-10T10:11:39;4.07;;;2.20;;
44987;SDS011;35735;52.226;21.254;2023-05-10T10:16:39;10.25;;;2.17;;
44987;SDS011;35735;52.226;21.254;2023-05-10T10:21:40;7.53;;;2.40;;
44987;SDS011;35735;52.226;21.254;2023-05-10T10:26:41;5.75;;;2.30;;
44987;SDS011;35735;52.226;21.254;2023-05-10T10:31:47;5.68;;;2.15;;
44987;SDS011;35735;52.226;21.254;2023-05-10T10:36:57;8.57;;;2.50;;
44987;SDS011;35735;52.226;21.254;2023-05-10T10:42:04;5.12;;;2.03;;
44987;SDS011;35735;52.226;21.254;2023-05-10T10:57:14;9.23;;;2.40;;
44987;SDS011;35735;52.226;21.254;2023-05-10T11:02:32;6.93;;;2.60;;
44987;SDS011;35735;52.226;21.254;2023-05-10T11:07:53;18.35;;;3.12;;
44987;SDS011;35735;52.226;21.254;2023-05-10T11:12:59;6.03;;;2.10;;
44987;SDS011;35735;52.226;21.254;2023-05-10T11:28:46;6.62;;;2.45;;
44987;SDS011;35735;52.226;21.254;2023-05-10T11:33:49;13.30;;;3.00;;
44987;SDS011;35735;52.226;21.254;2023-05-10T11:38:55;7.90;;;4.75;;
44987;SDS011;35735;52.226;21.254;2023-05-10T11:43:57;10.85;;;3.28;;
44987;SDS011;35735;52.226;21.254;2023-05-10T11:48:59;10.68;;;3.47;;
44987;SDS011;35735;52.226;21.254;2023-05-10T11:54:02;7.30;;;2.40;;
44987;SDS011;35735;52.226;21.254;2023-05-10T11:59:09;6.15;;;2.58;;
44987;SDS011;35735;52.226;21.254;2023-05-10T12:04:10;5.82;;;2.30;;
44987;SDS011;35735;52.226;21.254;2023-05-10T12:09:11;9.48;;;3.10;;
44987;SDS011;35735;52.226;21.254;2023-05-10T12:14:11;6.20;;;2.10;;
44987;SDS011;35735;52.226;21.254;2023-05-10T12:19:12;6.45;;;2.70;;
44987;SDS011;35735;52.226;21.254;2023-05-10T12:24:12;6.50;;;2.67;;
44987;SDS011;35735;52.226;21.254;2023-05-10T12:29:17;10.80;;;2.80;;
44987;SDS011;35735;52.226;21.254;2023-05-10T12:34:52;7.50;;;2.40;;
44987;SDS011;35735;52.226;21.254;2023-05-10T12:39:46;4.20;;;2.20;;
44987;SDS011;35735;52.226;21.254;2023-05-10T12:44:47;5.32;;;2.45;;
44987;SDS011;35735;52.226;21.254;2023-05-10T12:49:47;7.47;;;2.15;;
44987;SDS011;35735;52.226;21.254;2023-05-10T12:54:48;4.82;;;2.35;;
44987;SDS011;35735;52.226;21.254;2023-05-10T12:59:49;29.63;;;4.07;;
44987;SDS011;35735;52.226;21.254;2023-05-10T13:04:49;6.55;;;2.70;;
44987;SDS011;35735;52.226;21.254;2023-05-10T13:09:50;11.70;;;2.72;;
44987;SDS011;35735;52.226;21.254;2023-05-10T13:14:51;10.27;;;2.30;;
44987;SDS011;35735;52.226;21.254;2023-05-10T13:19:51;4.25;;;2.58;;
44987;SDS011;35735;52.226;21.254;2023-05-10T13:24:52;4.18;;;2.10;;
44987;SDS011;35735;52.226;21.254;2023-05-10T13:29:53;6.45;;;2.30;;
44987;SDS011;35735;52.226;21.254;2023-05-10T13:34:53;9.25;;;2.33;;
44987;SDS011;35735;52.226;21.254;2023-05-10T13:39:55;5.20;;;2.20;;
44987;SDS011;35735;52.226;21.254;2023-05-10T13:44:55;8.85;;;2.55;;
44987;SDS011;35735;52.226;21.254;2023-05-10T13:49:56;10.52;;;2.72;;
44987;SDS011;35735;52.226;21.254;2023-05-10T13:54:56;3.83;;;2.05;;
44987;SDS011;35735;52.226;21.254;2023-05-10T13:59:57;6.05;;;2.10;;
44987;SDS011;35735;52.226;21.254;2023-05-10T14:04:58;4.03;;;2.20;;
44987;SDS011;35735;52.226;21.254;2023-05-10T14:09:59;3.42;;;1.77;;
44987;SDS011;35735;52.226;21.254;2023-05-10T14:15:00;6.15;;;1.95;;
44987;SDS011;35735;52.226;21.254;2023-05-10T14:20:01;8.15;;;2.53;;
44987;SDS011;35735;52.226;21.254;2023-05-10T14:25:02;11.07;;;2.42;;
44987;SDS011;35735;52.226;21.254;2023-05-10T14:30:03;7.87;;;2.12;;
44987;SDS011;35735;52.226;21.254;2023-05-10T14:35:04;9.68;;;2.40;;
44987;SDS011;35735;52.226;21.254;2023-05-10T14:40:05;4.85;;;2.05;;
44987;SDS011;35735;52.226;21.254;2023-05-10T14:45:07;4.37;;;2.00;;
44987;SDS011;35735;52.226;21.254;2023-05-10T14:50:08;5.43;;;1.80;;
44987;SDS011;35735;52.226;21.254;2023-05-10T14:55:09;6.28;;;1.95;;
44987;SDS011;35735;52.226;21.254;2023-05-10T15:00:09;8.05;;;2.15;;
44987;SDS011;35735;52.226;21.254;2023-05-10T15:05:11;9.70;;;2.80;;
44987;SDS011;35735;52.226;21.254;2023-05-10T15:10:12;5.37;;;2.25;;
44987;SDS011;35735;52.226;21.254;2023-05-10T15:15:12;9.75;;;2.17;;
44987;SDS011;35735;52.226;21.254;2023-05-10T15:20:13;4.35;;;2.05;;
44987;SDS011;35735;52.226;21.254;2023-05-10T15:25:13;4.55;;;2.20;;
44987;SDS011;35735;52.226;21.254;2023-05-10T15:30:14;5.05;;;2.10;;
44987;SDS011;35735;52.226;21.254;2023-05-10T15:35:15;5.22;;;2.40;;
44987;SDS011;35735;52.226;21.254;2023-05-10T15:40:15;4.87;;;2.05;;
44987;SDS011;35735;52.226;21.254;2023-05-10T15:45:16;5.37;;;1.90;;
44987;SDS011;35735;52.226;21.254;2023-05-10T15:50:17;4.40;;;2.50;;
44987;SDS011;35735;52.226;21.254;2023-05-10T15:55:18;3.58;;;2.12;;
44987;SDS011;35735;52.226;21.254;2023-05-10T16:00:19;4.30;;;1.85;;
44987;SDS011;35735;52.226;21.254;2023-05-10T16:05:20;6.37;;;2.47;;
44987;SDS011;35735;52.226;21.254;2023-05-10T16:10:20;7.25;;;2.42;;
44987;SDS011;35735;52.226;21.254;2023-05-10T16:15:21;4.82;;;2.20;;
44987;SDS011;35735;52.226;21.254;2023-05-10T16:20:21;3.97;;;2.00;;
44987;SDS011;35735;52.226;21.254;2023-05-10T16:25:22;4.53;;;2.20;;
44987;SDS011;35735;52.226;21.254;2023-05-10T16:30:23;5.80;;;2.22;;
44987;SDS011;35735;52.226;21.254;2023-05-10T16:35:24;4.65;;;2.60;;
44987;SDS011;35735;52.226;21.254;2023-05-10T16:40:24;7.32;;;3.45;;
44987;SDS011;35735;52.226;21.254;2023-05-10T16:45:25;6.90;;;2.60;;
44987;SDS011;35735;52.226;21.254;2023-05-10T16:50:25;3.40;;;2.35;;
44987;SDS011;35735;52.226;21.254;2023-05-10T16:55:26;5.28;;;2.10;;
44987;SDS011;35735;52.226;21.254;2023-05-10T17:00:26;3.87;;;2.00;;
44987;SDS011;35735;52.226;21.254;2023-05-10T17:05:27;5.43;;;2.85;;
44987;SDS011;35735;52.226;21.254;2023-05-10T17:10:28;5.32;;;3.22;;
44987;SDS011;35735;52.226;21.254;2023-05-10T17:15:29;6.55;;;3.12;;
44987;SDS011;35735;52.226;21.254;2023-05-10T17:20:29;7.45;;;3.20;;
44987;SDS011;35735;52.226;21.254;2023-05-10T17:25:30;6.05;;;2.50;;
44987;SDS011;35735;52.226;21.254;2023-05-10T17:30:30;4.32;;;3.03;;
44987;SDS011;35735;52.226;21.254;2023-05-10T17:35:31;3.97;;;2.60;;
44987;SDS011;35735;52.226;21.254;2023-05-10T17:40:32;4.75;;;2.55;;
44987;SDS011;35735;52.226;21.254;2023-05-10T17:45:32;5.47;;;2.40;;
44987;SDS011;35735;52.226;21.254;2023-05-10T17:50:33;5.62;;;3.22;;
44987;SDS011;35735;52.226;21.254;2023-05-10T17:55:33;11.63;;;7.10;;
44987;SDS011;35735;52.226;21.254;2023-05-10T18:00:35;7.70;;;3.25;;
44987;SDS011;35735;52.226;21.254;2023-05-10T18:05:35;7.87;;;4.32;;
44987;SDS011;35735;52.226;21.254;2023-05-10T18:10:37;6.78;;;3.75;;
44987;SDS011;35735;52.226;21.254;2023-05-10T18:15:38;8.93;;;3.75;;
44987;SDS011;35735;52.226;21.254;2023-05-10T18:20:39;13.10;;;4.68;;
44987;SDS011;35735;52.226;21.254;2023-05-10T18:25:39;10.60;;;6.07;;
44987;SDS011;35735;52.226;21.254;2023-05-10T18:30:40;7.82;;;3.20;;
44987;SDS011;35735;52.226;21.254;2023-05-10T18:35:41;11.63;;;3.72;;
44987;SDS011;35735;52.226;21.254;2023-05-10T18:40:41;10.60;;;3.75;;
44987;SDS011;35735;52.226;21.254;2023-05-10T18:45:42;9.10;;;4.70;;
44987;SDS011;35735;52.226;21.254;2023-05-10T18:50:42;12.43;;;5.87;;
44987;SDS011;35735;52.226;21.254;2023-05-10T18:55:43;7.95;;;4.82;;
44987;SDS011;35735;52.226;21.254;2023-05-10T19:00:43;13.00;;;4.80;;
44987;SDS011;35735;52.226;21.254;2023-05-10T19:05:44;11.25;;;5.45;;
44987;SDS011;35735;52.226;21.254;2023-05-10T19:10:44;9.45;;;5.53;;
44987;SDS011;35735;52.226;21.254;2023-05-10T19:15:45;12.07;;;6.25;;
44987;SDS011;35735;52.226;21.254;2023-05-10T19:20:46;12.90;;;7.28;;
44987;SDS011;35735;52.226;21.254;2023-05-10T19:25:46;13.52;;;7.57;;
44987;SDS011;35735;52.226;21.254;2023-05-10T19:30:47;14.93;;;7.55;;
44987;SDS011;35735;52.226;21.254;2023-05-10T19:35:50;12.85;;;6.85;;
44987;SDS011;35735;52.226;21.254;2023-05-10T19:40:53;13.93;;;7.00;;
44987;SDS011;35735;52.226;21.254;2023-05-10T19:45:57;16.10;;;8.68;;
44987;SDS011;35735;52.226;21.254;2023-05-10T19:51:00;14.63;;;8.13;;
44987;SDS011;35735;52.226;21.254;2023-05-10T19:56:02;17.52;;;9.05;;
44987;SDS011;35735;52.226;21.254;2023-05-10T20:01:04;16.55;;;8.88;;
44987;SDS011;35735;52.226;21.254;2023-05-10T20:06:05;20.10;;;9.70;;
44987;SDS011;35735;52.226;21.254;2023-05-10T20:11:05;19.60;;;9.20;;
44987;SDS011;35735;52.226;21.254;2023-05-10T20:16:06;23.33;;;9.68;;
44987;SDS011;35735;52.226;21.254;2023-05-10T20:21:07;20.90;;;10.05;;
44987;SDS011;35735;52.226;21.254;2023-05-10T20:26:07;20.58;;;10.82;;
44987;SDS011;35735;52.226;21.254;2023-05-10T20:31:08;14.60;;;9.40;;
44987;SDS011;35735;52.226;21.254;2023-05-10T20:36:08;17.90;;;8.68;;
44987;SDS011;35735;52.226;21.254;2023-05-10T20:41:09;14.43;;;8.75;;
44987;SDS011;35735;52.226;21.254;2023-05-10T20:46:09;12.27;;;7.65;;
44987;SDS011;35735;52.226;21.254;2023-05-10T20:51:10;17.33;;;7.85;;
44987;SDS011;35735;52.226;21.254;2023-05-10T20:56:11;14.10;;;6.65;;
44987;SDS011;35735;52.226;21.254;2023-05-10T21:01:12;7.80;;;5.22;;
44987;SDS011;35735;52.226;21.254;2023-05-10T21:06:13;11.45;;;5.62;;
44987;SDS011;35735;52.226;21.254;2023-05-10T21:11:14;14.73;;;6.07;;
44987;SDS011;35735;52.226;21.254;2023-05-10T21:16:14;10.20;;;5.85;;
44987;SDS011;35735;52.226;21.254;2023-05-10T21:21:15;9.40;;;5.10;;
44987;SDS011;35735;52.226;21.254;2023-05-10T21:26:15;16.70;;;6.30;;
44987;SDS011;35735;52.226;21.254;2023-05-10T21:31:16;14.75;;;6.10;;
44987;SDS011;35735;52.226;21.254;2023-05-10T21:36:16;14.45;;;7.00;;
44987;SDS011;35735;52.226;21.254;2023-05-10T21:41:17;17.35;;;6.47;;
44987;SDS011;35735;52.226;21.254;2023-05-10T21:46:17;11.60;;;5.60;;
44987;SDS011;35735;52.226;21.254;2023-05-10T21:51:18;11.95;;;6.57;;
44987;SDS011;35735;52.226;21.254;2023-05-10T21:56:19;8.00;;;4.57;;
44987;SDS011;35735;52.226;21.254;2023-05-10T22:01:19;8.18;;;4.70;;
44987;SDS011;35735;52.226;21.254;2023-05-10T22:06:20;16.35;;;9.38;;
44987;SDS011;35735;52.226;21.254;2023-05-10T22:11:20;11.02;;;7.53;;
44987;SDS011;35735;52.226;21.254;2023-05-10T22:16:21;12.32;;;5.65;;
44987;SDS011;35735;52.226;21.254;2023-05-10T22:21:21;10.73;;;5.90;;
44987;SDS011;35735;52.226;21.254;2023-05-10T22:26:22;10.60;;;5.50;;
44987;SDS011;35735;52.226;21.254;2023-05-10T22:31:22;10.18;;;5.00;;
44987;SDS011;35735;52.226;21.254;2023-05-10T22:36:23;10.52;;;4.47;;
44987;SDS011;35735;52.226;21.254;2023-05-10T22:41:23;7.53;;;4.00;;
44987;SDS011;35735;52.226;21.254;2023-05-10T22:46:24;6.25;;;3.58;;
44987;SDS011;35735;52.226;21.254;2023-05-10T22:51:25;7.70;;;4.00;;
44987;SDS011;35735;52.226;21.254;2023-05-10T22:56:25;7.57;;;4.40;;
44987;SDS011;35735;52.226;21.254;2023-05-10T23:01:26;13.45;;;8.05;;
44987;SDS011;35735;52.226;21.254;2023-05-10T23:06:27;14.73;;;7.93;;
44987;SDS011;35735;52.226;21.254;2023-05-10T23:11:28;13.00;;;6.55;;
44987;SDS011;35735;52.226;21.254;2023-05-10T23:16:29;18.48;;;7.40;;
44987;SDS011;35735;52.226;21.254;2023-05-10T23:21:29;15.65;;;5.65;;
44987;SDS011;35735;52.226;21.254;2023-05-10T23:26:30;9.23;;;4.57;;
44987;SDS011;35735;52.226;21.254;2023-05-10T23:31:30;14.23;;;5.43;;
44987;SDS011;35735;52.226;21.254;2023-05-10T23:36:31;11.02;;;6.47;;
44987;SDS011;35735;52.226;21.254;2023-05-10T23:41:31;14.48;;;9.77;;
44987;SDS011;35735;52.226;21.254;2023-05-10T23:46:32;14.98;;;7.15;;
44987;SDS011;35735;52.226;21.254;2023-05-10T23:51:32;14.10;;;6.75;;
44987;SDS011;35735;52.226;21.254;2023-05-10T23:56:33;11.85;;;5.72;;
